Time;durP1;ratioP1;P1;durP2;ratioP2;P2;SDS_P1;SDS_P2;PMS_P1;PMS_P2;Temp;Humidity;BMP_temperature;BMP_pressure;BME280_temperature;BME280_humidity;BME280_pressure;Samples;Min_cycle;Max_cycle;Signal;HPM_P1;HPM_P2
2023/02/15 00:00:21;;;;;;;17.25;5.43;;;6.70;68.90;;;;;;5045595;28;20025;-64
2023/02/15 00:02:47;;;;;;;11.88;4.70;;;6.70;68.90;;;;;;5045506;28;20032;-63
2023/02/15 00:05:12;;;;;;;9.68;5.30;;;6.70;68.80;;;;;;5040236;28;20041;-63
2023/02/15 00:07:38;;;;;;;7.93;5.57;;;6.60;68.80;;;;;;5043835;28;20087;-63
2023/02/15 00:10:05;;;;;;;11.70;7.05;;;6.60;68.80;;;;;;5043173;28;20021;-63
2023/02/15 00:12:30;;;;;;;10.63;5.95;;;6.60;68.90;;;;;;5041795;28;20040;-62
2023/02/15 00:14:56;;;;;;;13.13;6.40;;;6.60;69.00;;;;;;5069904;28;20321;-63
2023/02/15 00:17:22;;;;;;;11.70;6.00;;;6.50;69.10;;;;;;5046730;28;20689;-63
2023/02/15 00:19:48;;;;;;;9.48;6.82;;;6.50;69.10;;;;;;5042198;28;20021;-63
2023/02/15 00:22:13;;;;;;;11.00;6.38;;;6.50;69.20;;;;;;5043574;28;20033;-63
2023/02/15 00:24:39;;;;;;;12.00;6.78;;;6.40;69.20;;;;;;5057402;28;20017;-63
2023/02/15 00:27:04;;;;;;;10.57;6.45;;;6.40;69.20;;;;;;5065236;28;20518;-63
2023/02/15 00:29:30;;;;;;;14.63;7.07;;;6.40;69.20;;;;;;5056034;28;20156;-63
2023/02/15 00:31:56;;;;;;;11.25;6.65;;;6.40;69.30;;;;;;5052061;28;20053;-63
2023/02/15 00:34:27;;;;;;;12.52;7.95;;;6.40;69.50;;;;;;5040324;28;20032;-59
2023/02/15 00:36:53;;;;;;;12.15;7.78;;;6.40;70.50;;;;;;5053078;28;20219;-60
2023/02/15 00:39:19;;;;;;;8.55;6.97;;;6.40;70.70;;;;;;5041220;28;20384;-60
2023/02/15 00:41:46;;;;;;;11.18;6.97;;;6.40;70.90;;;;;;5036853;28;20036;-60
2023/02/15 00:44:12;;;;;;;11.57;8.13;;;6.30;70.70;;;;;;5077073;28;20033;-60
2023/02/15 00:46:38;;;;;;;11.32;6.93;;;6.30;70.60;;;;;;5033031;28;20416;-63
2023/02/15 00:49:05;;;;;;;10.07;7.13;;;6.30;70.40;;;;;;5060305;28;20033;-59
2023/02/15 00:51:31;;;;;;;10.35;6.60;;;6.30;71.00;;;;;;5049086;28;20028;-60
2023/02/15 00:53:57;;;;;;;13.13;7.80;;;6.20;70.40;;;;;;5046499;28;20028;-61
2023/02/15 00:56:23;;;;;;;14.30;8.00;;;6.20;70.40;;;;;;5056077;28;20021;-60
2023/02/15 00:58:49;;;;;;;14.27;7.55;;;6.20;70.30;;;;;;5048522;28;20063;-60
2023/02/15 01:01:19;;;;;;;11.50;6.53;;;6.20;70.30;;;;;;5045541;28;20029;-60
2023/02/15 01:03:46;;;;;;;11.95;6.35;;;6.10;70.30;;;;;;5064862;28;20037;-60
2023/02/15 01:06:13;;;;;;;9.98;6.30;;;6.10;70.90;;;;;;5058425;28;20028;-60
2023/02/15 01:08:39;;;;;;;11.35;7.13;;;6.00;70.20;;;;;;5049861;28;20091;-60
2023/02/15 01:11:10;;;;;;;12.98;7.20;;;6.00;70.30;;;;;;5050562;28;20427;-60
2023/02/15 01:13:36;;;;;;;8.45;6.30;;;6.00;70.30;;;;;;5049609;28;20029;-59
2023/02/15 01:16:02;;;;;;;10.98;6.97;;;5.90;70.30;;;;;;5049552;28;20032;-60
2023/02/15 01:18:28;;;;;;;14.65;6.95;;;5.90;70.40;;;;;;5081655;28;20498;-60
2023/02/15 01:20:55;;;;;;;12.38;7.13;;;5.90;70.40;;;;;;5053439;28;20033;-60
2023/02/15 01:23:21;;;;;;;8.32;6.35;;;5.90;70.40;;;;;;5051030;28;20025;-61
2023/02/15 01:25:46;;;;;;;9.45;5.65;;;5.90;70.40;;;;;;5050015;28;20545;-61
2023/02/15 01:28:12;;;;;;;10.00;6.80;;;5.80;70.30;;;;;;5043924;28;20025;-63
2023/02/15 01:30:38;;;;;;;9.88;5.50;;;5.90;70.30;;;;;;5050912;28;20090;-60
2023/02/15 01:33:03;;;;;;;15.15;6.30;;;5.80;70.20;;;;;;5044915;28;20388;-60
2023/02/15 01:35:29;;;;;;;14.13;6.78;;;5.80;70.30;;;;;;5033549;28;20021;-59
2023/02/15 01:37:56;;;;;;;11.88;6.20;;;5.80;70.30;;;;;;5048874;28;20024;-62
2023/02/15 01:40:22;;;;;;;8.30;5.93;;;5.80;70.40;;;;;;5050655;28;20099;-62
2023/02/15 01:42:52;;;;;;;11.63;6.00;;;5.70;70.40;;;;;;5045068;28;20411;-62
2023/02/15 01:45:27;;;;;;;9.90;6.43;;;5.70;70.40;;;;;;5053263;28;20125;-61
2023/02/15 01:48:22;;;;;;;8.52;5.20;;;5.60;70.40;;;;;;5050098;28;20128;-59
2023/02/15 01:50:52;;;;;;;9.32;5.53;;;5.60;70.40;;;;;;5049911;28;20041;-60
2023/02/15 01:53:34;;;;;;;7.15;5.80;;;5.50;70.60;;;;;;5050126;28;20092;-60
2023/02/15 01:56:33;;;;;;;8.45;6.22;;;5.60;70.60;;;;;;5044730;28;20032;-59
2023/02/15 01:59:05;;;;;;;10.52;5.95;;;5.50;70.70;;;;;;5042784;28;20128;-63
2023/02/15 02:01:31;;;;;;;12.02;7.15;;;5.50;70.70;;;;;;5047478;28;20013;-63
2023/02/15 02:04:04;;;;;;;12.68;6.95;;;5.40;70.70;;;;;;5043437;28;20045;-60
2023/02/15 02:06:30;;;;;;;9.90;6.25;;;5.40;70.70;;;;;;5055803;28;20392;-60
2023/02/15 02:08:57;;;;;;;12.88;6.60;;;5.40;70.70;;;;;;5049163;28;20094;-60
2023/02/15 02:11:23;;;;;;;10.23;5.57;;;5.30;70.60;;;;;;5047135;28;20118;-63
2023/02/15 02:13:51;;;;;;;8.40;5.43;;;5.30;70.70;;;;;;5043498;28;20111;-63
2023/02/15 02:16:23;;;;;;;10.75;6.32;;;5.30;70.70;;;;;;5050053;28;20024;-61
2023/02/15 02:18:51;;;;;;;8.80;4.78;;;5.30;70.70;;;;;;5081950;28;20096;-63
2023/02/15 02:21:54;;;;;;;12.23;6.30;;;5.30;70.70;;;;;;5050378;28;20025;-63
2023/02/15 02:24:47;;;;;;;9.47;5.73;;;5.30;70.70;;;;;;5043023;28;20383;-60
2023/02/15 02:27:31;;;;;;;8.52;5.30;;;5.20;70.80;;;;;;5043686;28;20025;-60
2023/02/15 02:30:26;;;;;;;8.07;5.60;;;5.20;70.90;;;;;;5054280;28;20028;-62
2023/02/15 02:33:01;;;;;;;9.60;5.75;;;5.20;70.90;;;;;;5056591;28;20044;-62
2023/02/15 02:35:38;;;;;;;14.10;6.13;;;5.20;71.00;;;;;;5048053;28;20033;-60
2023/02/15 02:38:36;;;;;;;7.70;5.32;;;5.10;71.00;;;;;;5045455;28;20468;-60
2023/02/15 02:41:41;;;;;;;12.40;7.22;;;5.10;71.00;;;;;;5033638;28;20060;-60
2023/02/15 02:44:17;;;;;;;10.77;6.68;;;5.10;71.00;;;;;;5045426;28;20075;-60
2023/02/15 02:46:59;;;;;;;8.85;6.10;;;5.10;71.20;;;;;;5039689;28;20036;-60
2023/02/15 02:49:36;;;;;;;8.18;5.78;;;5.00;71.20;;;;;;5042449;28;20104;-60
2023/02/15 02:52:05;;;;;;;8.35;5.88;;;5.00;71.20;;;;;;5039891;28;20076;-60
2023/02/15 02:54:33;;;;;;;8.48;5.35;;;5.00;71.20;;;;;;5049500;28;20021;-63
2023/02/15 02:57:03;;;;;;;7.53;5.78;;;5.00;71.20;;;;;;5048028;28;20056;-62
2023/02/15 02:59:39;;;;;;;11.35;5.78;;;4.90;71.30;;;;;;5040447;28;20045;-60
2023/02/15 03:02:13;;;;;;;8.43;5.70;;;4.90;71.30;;;;;;5044551;28;20476;-63
2023/02/15 03:04:45;;;;;;;9.50;5.20;;;4.90;71.30;;;;;;5046596;28;20025;-63
2023/02/15 03:07:15;;;;;;;10.02;6.70;;;4.90;71.30;;;;;;5047937;28;20032;-63
2023/02/15 03:09:47;;;;;;;8.85;6.18;;;4.90;71.40;;;;;;5073401;28;20028;-63
2023/02/15 03:12:13;;;;;;;;;;;4.80;71.40;;;;;;5048779;28;20037;-63
2023/02/15 03:14:40;;;;;;;7.15;4.10;;;4.80;71.60;;;;;;5055605;28;20382;-63
2023/02/15 03:17:07;;;;;;;15.80;5.97;;;4.80;71.70;;;;;;5048642;28;20025;-63
2023/02/15 03:19:36;;;;;;;8.90;5.45;;;4.70;71.60;;;;;;5053739;28;20032;-63
2023/02/15 03:22:35;;;;;;;7.80;5.63;;;4.70;71.70;;;;;;5048121;28;20021;-62
2023/02/15 03:25:22;;;;;;;11.40;5.30;;;4.70;71.70;;;;;;5043152;28;20037;-60
2023/02/15 03:27:52;;;;;;;8.98;5.85;;;4.70;71.70;;;;;;5042317;28;20096;-62
2023/02/15 03:30:20;;;;;;;11.77;7.00;;;4.70;71.80;;;;;;5048681;28;20460;-60
2023/02/15 03:32:48;;;;;;;10.65;5.72;;;4.70;71.80;;;;;;5048311;28;20029;-59
2023/02/15 03:35:14;;;;;;;7.82;5.57;;;4.70;71.80;;;;;;5052388;28;20063;-59
2023/02/15 03:37:50;;;;;;;9.23;5.53;;;4.60;71.80;;;;;;5048712;28;20025;-62
2023/02/15 03:43:39;;;;;;;8.88;5.40;;;4.60;71.90;;;;;;5046915;28;20079;-60
2023/02/15 03:46:12;;;;;;;9.57;5.50;;;4.50;71.90;;;;;;5043153;28;20388;-60
2023/02/15 03:48:46;;;;;;;6.97;5.03;;;4.50;72.00;;;;;;5050534;28;20024;-60
2023/02/15 03:51:38;;;;;;;12.88;6.13;;;4.50;72.00;;;;;;5044315;28;20087;-62
2023/02/15 04:02:42;;;;;;;7.50;5.47;;;4.40;72.30;;;;;;5043409;28;20085;-63
2023/02/15 04:05:08;;;;;;;9.00;6.45;;;4.30;72.40;;;;;;5049789;28;20024;-63
2023/02/15 04:07:34;;;;;;;11.77;5.65;;;4.30;72.40;;;;;;5075526;28;20098;-63
2023/02/15 04:12:43;;;;;;;11.10;5.82;;;4.30;72.40;;;;;;5047458;28;20044;-60
2023/02/15 04:17:57;;;;;;;9.65;5.95;;;4.30;72.50;;;;;;5039842;28;20064;-61
2023/02/15 04:25:51;;;;;;;9.50;5.88;;;4.20;72.60;;;;;;5045447;28;20040;-60
2023/02/15 04:28:17;;;;;;;10.40;5.28;;;4.20;72.60;;;;;;5048061;28;20029;-63
2023/02/15 04:30:43;;;;;;;8.32;5.63;;;4.20;72.70;;;;;;5046272;28;20384;-60
2023/02/15 04:33:09;;;;;;;12.45;5.75;;;4.20;72.70;;;;;;5063035;28;20137;-58
2023/02/15 04:35:34;;;;;;;7.93;5.43;;;4.10;72.60;;;;;;5055491;28;20033;-60
2023/02/15 04:38:00;;;;;;;9.38;5.07;;;4.20;72.70;;;;;;5048998;28;20055;-59
2023/02/15 04:40:26;;;;;;;8.70;4.97;;;4.10;72.60;;;;;;5049536;28;20116;-60
2023/02/15 04:42:51;;;;;;;8.80;5.55;;;4.10;72.60;;;;;;5046833;28;20056;-60
2023/02/15 04:45:17;;;;;;;9.98;5.15;;;4.10;72.60;;;;;;5047310;28;20514;-61
2023/02/15 04:47:43;;;;;;;10.63;6.72;;;4.10;72.60;;;;;;5037273;28;20033;-59
2023/02/15 04:50:10;;;;;;;10.60;5.70;;;4.10;72.60;;;;;;5052033;28;20025;-60
2023/02/15 04:52:36;;;;;;;10.23;6.20;;;4.10;72.60;;;;;;5044975;28;20127;-59
2023/02/15 04:55:02;;;;;;;8.90;6.07;;;4.00;72.60;;;;;;5043042;28;20484;-63
2023/02/15 04:57:27;;;;;;;9.68;6.38;;;4.00;72.70;;;;;;5050249;28;20120;-63
2023/02/15 04:59:53;;;;;;;8.52;6.22;;;4.00;72.70;;;;;;5050283;28;20109;-63
2023/02/15 05:02:19;;;;;;;10.95;5.63;;;4.00;72.70;;;;;;5041283;28;20029;-59
2023/02/15 05:04:45;;;;;;;10.98;5.95;;;4.00;72.80;;;;;;5046554;28;20081;-63
2023/02/15 05:07:11;;;;;;;10.35;6.30;;;4.00;72.80;;;;;;5049272;28;20025;-62
2023/02/15 05:09:36;;;;;;;12.00;6.25;;;4.00;72.80;;;;;;5054844;28;20364;-62
2023/02/15 05:12:02;;;;;;;11.60;5.63;;;3.90;72.70;;;;;;5051721;28;20388;-63
2023/02/15 05:14:28;;;;;;;13.18;5.88;;;4.00;73.40;;;;;;5054355;28;20025;-63
2023/02/15 05:16:53;;;;;;;10.93;7.00;;;3.90;72.70;;;;;;5082946;28;20021;-64
2023/02/15 05:19:19;;;;;;;7.80;5.68;;;3.90;72.80;;;;;;5060947;28;20170;-62
2023/02/15 05:21:45;;;;;;;9.23;6.10;;;3.90;72.90;;;;;;5053463;28;20028;-59
2023/02/15 05:29:39;;;;;;;9.82;5.25;;;3.80;72.90;;;;;;5053119;28;20052;-62
2023/02/15 05:32:05;;;;;;;5.57;4.45;;;3.80;72.90;;;;;;5050108;28;20053;-64
2023/02/15 05:34:30;;;;;;;10.60;7.07;;;3.80;72.90;;;;;;5053167;28;20036;-62
2023/02/15 05:36:56;;;;;;;8.52;5.55;;;3.80;72.90;;;;;;5050720;28;20501;-62
2023/02/15 05:39:22;;;;;;;8.50;5.63;;;3.80;72.90;;;;;;5054032;28;20028;-62
2023/02/15 05:41:47;;;;;;;9.73;6.13;;;3.80;73.00;;;;;;5052901;28;20036;-63
2023/02/15 05:44:13;;;;;;;10.77;6.13;;;3.80;73.10;;;;;;5053245;28;20044;-62
2023/02/15 05:46:39;;;;;;;10.00;5.10;;;3.70;73.00;;;;;;5066630;28;20461;-60
2023/02/15 05:49:04;;;;;;;8.75;5.68;;;3.70;73.00;;;;;;5042276;28;20056;-62
2023/02/15 05:51:30;;;;;;;11.35;7.25;;;3.70;73.00;;;;;;5063713;28;20488;-61
2023/02/15 05:53:55;;;;;;;8.90;5.72;;;3.70;73.20;;;;;;5045832;28;20480;-61
2023/02/15 05:56:21;;;;;;;9.77;6.13;;;3.70;73.20;;;;;;5077034;28;20091;-60
2023/02/15 05:58:47;;;;;;;12.88;6.15;;;3.70;73.10;;;;;;5050319;28;20373;-60
2023/02/15 06:01:17;;;;;;;6.93;4.60;;;3.70;73.20;;;;;;5044434;28;20059;-59
2023/02/15 06:03:43;;;;;;;8.18;5.82;;;3.70;73.30;;;;;;5044306;28;20028;-60
2023/02/15 06:06:09;;;;;;;9.80;6.28;;;3.60;73.20;;;;;;5052144;28;20029;-61
2023/02/15 06:08:36;;;;;;;10.65;6.18;;;3.60;73.20;;;;;;5045813;28;20041;-60
2023/02/15 06:11:02;;;;;;;12.25;6.07;;;3.60;73.20;;;;;;5052357;28;20448;-61
2023/02/15 06:13:28;;;;;;;9.98;5.95;;;3.60;73.30;;;;;;5041573;28;20053;-60
2023/02/15 06:15:54;;;;;;;8.75;5.93;;;3.60;73.30;;;;;;5045270;28;20036;-60
2023/02/15 06:18:19;;;;;;;9.38;5.25;;;3.60;73.30;;;;;;5046088;28;20442;-60
2023/02/15 06:20:46;;;;;;;8.20;5.45;;;3.60;73.30;;;;;;5045903;28;20052;-59
2023/02/15 06:23:12;;;;;;;11.13;6.13;;;3.60;73.30;;;;;;5050680;28;20529;-60
2023/02/15 06:25:38;;;;;;;10.43;4.88;;;3.60;73.90;;;;;;5050354;28;20075;-59
2023/02/15 06:28:04;;;;;;;10.48;6.60;;;3.60;73.30;;;;;;5051487;28;20033;-59
2023/02/15 06:30:29;;;;;;;11.18;6.10;;;3.50;73.30;;;;;;5041839;28;20036;-60
2023/02/15 06:32:55;;;;;;;9.95;5.55;;;3.50;73.30;;;;;;5045649;28;20050;-63
2023/02/15 06:35:21;;;;;;;10.75;6.13;;;3.50;73.30;;;;;;5049627;28;20512;-63
2023/02/15 06:37:48;;;;;;;9.45;5.93;;;3.50;73.40;;;;;;5039884;28;20028;-58
2023/02/15 06:40:14;;;;;;;7.95;6.28;;;3.50;73.40;;;;;;5043828;28;20033;-62
2023/02/15 06:42:40;;;;;;;10.45;5.50;;;3.50;73.40;;;;;;5045167;28;20491;-62
2023/02/15 06:45:06;;;;;;;18.17;5.65;;;3.50;73.40;;;;;;5046641;28;20071;-61
2023/02/15 06:47:32;;;;;;;11.98;6.63;;;3.50;73.50;;;;;;5044056;28;20081;-62
2023/02/15 06:49:58;;;;;;;8.88;5.75;;;3.50;73.40;;;;;;5042723;28;20041;-62
2023/02/15 06:52:23;;;;;;;11.40;6.78;;;3.50;73.50;;;;;;5042468;28;20341;-61
2023/02/15 06:54:49;;;;;;;9.98;5.88;;;3.50;73.60;;;;;;5050535;28;20029;-63
2023/02/15 06:57:15;;;;;;;17.17;7.07;;;3.40;73.60;;;;;;5061025;28;20025;-62
2023/02/15 06:59:40;;;;;;;9.82;5.95;;;3.40;73.60;;;;;;5045554;28;20136;-63
2023/02/15 07:02:08;;;;;;;9.88;5.68;;;3.50;73.60;;;;;;5051858;28;20427;-61
2023/02/15 07:04:33;;;;;;;9.02;5.00;;;3.40;73.60;;;;;;5042061;28;20029;-62
2023/02/15 07:06:59;;;;;;;8.20;5.95;;;3.40;73.50;;;;;;5040330;28;20048;-63
2023/02/15 07:09:25;;;;;;;10.73;6.35;;;3.40;73.50;;;;;;5043833;28;20539;-64
2023/02/15 07:14:35;;;;;;;9.95;6.28;;;3.50;73.60;;;;;;5035078;28;20399;-62
2023/02/15 07:17:01;;;;;;;10.88;7.15;;;3.40;73.60;;;;;;5052220;28;20116;-63
2023/02/15 07:19:26;;;;;;;9.00;5.90;;;3.50;73.80;;;;;;5046884;28;20067;-62
2023/02/15 07:21:52;;;;;;;9.43;6.15;;;3.50;73.80;;;;;;5048548;28;20063;-62
2023/02/15 07:24:18;;;;;;;11.90;6.22;;;3.50;73.80;;;;;;5081171;28;20070;-62
2023/02/15 07:26:43;;;;;;;11.35;7.43;;;3.50;73.70;;;;;;5047637;28;20025;-61
2023/02/15 07:29:09;;;;;;;12.75;6.82;;;3.60;73.80;;;;;;5041547;28;20040;-61
2023/02/15 07:31:35;;;;;;;9.45;6.18;;;3.60;73.70;;;;;;5040593;28;20021;-65
2023/02/15 07:34:00;;;;;;;11.98;6.63;;;3.60;73.70;;;;;;5046253;28;20108;-61
2023/02/15 07:36:26;;;;;;;9.85;6.00;;;3.60;73.70;;;;;;5044736;28;20029;-62
2023/02/15 07:38:52;;;;;;;7.97;6.63;;;3.60;73.70;;;;;;5047140;28;20037;-61
2023/02/15 07:41:18;;;;;;;8.40;5.75;;;3.70;73.80;;;;;;5048831;28;20017;-62
2023/02/15 07:43:45;;;;;;;16.25;7.88;;;3.70;74.00;;;;;;5041435;28;20060;-62
2023/02/15 07:46:16;;;;;;;12.40;7.18;;;3.80;74.00;;;;;;5045465;28;20036;-61
2023/02/15 07:48:42;;;;;;;10.63;6.28;;;3.80;74.00;;;;;;5042611;28;20504;-60
2023/02/15 07:51:10;;;;;;;13.98;7.68;;;3.80;74.00;;;;;;5040825;28;20472;-61
2023/02/15 07:53:37;;;;;;;13.63;6.78;;;3.90;74.20;;;;;;5044561;28;20032;-60
2023/02/15 07:56:06;;;;;;;8.80;7.03;;;3.90;74.40;;;;;;5041048;28;20282;-61
2023/02/15 07:58:50;;;;;;;9.23;6.40;;;3.90;74.50;;;;;;5042128;28;20082;-62
2023/02/15 08:01:21;;;;;;;13.63;7.63;;;4.00;74.50;;;;;;5041894;28;20078;-61
2023/02/15 08:03:47;;;;;;;11.15;7.47;;;4.00;74.70;;;;;;5042212;28;20032;-62
2023/02/15 08:06:13;;;;;;;14.82;8.52;;;4.10;74.80;;;;;;5046841;28;20486;-62
2023/02/15 08:08:39;;;;;;;11.23;6.85;;;4.10;74.70;;;;;;5050686;28;20112;-63
2023/02/15 08:13:54;;;;;;;12.50;7.30;;;4.30;74.90;;;;;;5049556;28;20028;-61
2023/02/15 08:16:31;;;;;;;12.93;7.07;;;4.40;74.80;;;;;;5052143;28;20033;-61
2023/02/15 08:18:58;;;;;;;11.73;6.82;;;4.50;74.80;;;;;;5076670;28;20025;-58
2023/02/15 08:21:27;;;;;;;13.70;8.90;;;4.50;74.80;;;;;;5046319;28;20033;-58
2023/02/15 08:23:52;;;;;;;12.32;6.70;;;4.60;74.90;;;;;;5049432;28;20057;-59
2023/02/15 08:26:19;;;;;;;14.32;8.50;;;4.70;74.90;;;;;;5050804;28;20561;-59
2023/02/15 08:28:46;;;;;;;12.00;7.75;;;4.80;75.00;;;;;;5051841;28;20919;-59
2023/02/15 08:31:13;;;;;;;14.13;8.95;;;4.90;75.10;;;;;;5042622;28;20475;-61
2023/02/15 08:33:41;;;;;;;12.20;7.38;;;5.00;75.00;;;;;;5044949;28;20080;-59
2023/02/15 08:36:09;;;;;;;15.45;7.85;;;5.00;74.90;;;;;;5062474;28;20028;-59
2023/02/15 08:38:35;;;;;;;9.68;7.15;;;5.10;74.70;;;;;;5054149;28;20021;-59
2023/02/15 08:41:10;;;;;;;14.10;7.55;;;5.20;74.80;;;;;;5045553;28;20077;-62
2023/02/15 08:43:36;;;;;;;8.50;6.88;;;5.30;74.70;;;;;;5049280;28;20044;-62
2023/02/15 08:46:02;;;;;;;16.90;7.88;;;5.30;74.70;;;;;;5042907;28;20022;-63
2023/02/15 08:48:27;;;;;;;12.68;7.30;;;5.40;74.60;;;;;;5049072;28;20026;-61
2023/02/15 08:50:53;;;;;;;14.05;7.43;;;5.50;74.70;;;;;;5047113;28;20113;-60
2023/02/15 08:53:21;;;;;;;10.10;7.35;;;5.60;74.60;;;;;;5042598;28;20085;-59
2023/02/15 08:55:47;;;;;;;10.90;7.72;;;5.70;74.60;;;;;;5048501;28;20163;-59
2023/02/15 08:58:13;;;;;;;16.45;8.57;;;5.80;74.30;;;;;;5038124;28;20038;-64
2023/02/15 09:00:39;;;;;;;15.52;7.63;;;5.90;74.20;;;;;;5041849;28;20484;-62
2023/02/15 09:03:04;;;;;;;12.32;8.15;;;6.00;74.10;;;;;;5044445;28;20503;-62
2023/02/15 09:05:30;;;;;;;15.00;7.75;;;6.10;74.10;;;;;;5051290;28;20083;-62
2023/02/15 09:07:56;;;;;;;11.05;7.15;;;6.20;74.00;;;;;;5045204;28;20034;-62
2023/02/15 09:10:21;;;;;;;14.98;7.93;;;6.40;73.70;;;;;;5039830;28;20513;-61
2023/02/15 09:12:49;;;;;;;11.98;6.97;;;6.50;73.50;;;;;;5043354;28;20116;-59
2023/02/15 09:15:15;;;;;;;12.23;6.47;;;6.70;73.30;;;;;;5043981;28;20021;-59
2023/02/15 09:17:41;;;;;;;11.95;7.95;;;6.80;73.10;;;;;;5048108;28;20357;-59
2023/02/15 09:20:07;;;;;;;14.02;8.35;;;7.00;73.10;;;;;;5046821;28;20041;-60
2023/02/15 09:22:33;;;;;;;14.05;7.82;;;7.10;72.90;;;;;;5040856;28;20159;-61
2023/02/15 09:24:59;;;;;;;12.65;7.20;;;7.30;72.90;;;;;;5048137;28;20049;-60
2023/02/15 09:27:25;;;;;;;15.50;7.70;;;7.40;72.80;;;;;;5041205;28;20126;-60
2023/02/15 09:29:51;;;;;;;12.75;7.30;;;7.50;72.60;;;;;;5047279;28;20037;-60
2023/02/15 09:32:17;;;;;;;12.50;7.80;;;7.70;72.10;;;;;;5045248;28;20034;-58
2023/02/15 09:34:43;;;;;;;13.38;8.13;;;7.70;71.70;;;;;;5050068;28;20043;-59
2023/02/15 09:37:08;;;;;;;10.77;7.07;;;7.80;71.60;;;;;;5047451;28;20476;-60
2023/02/15 09:39:39;;;;;;;11.57;6.13;;;7.90;71.40;;;;;;5041257;28;20026;-60
2023/02/15 09:42:52;;;;;;;15.15;7.97;;;7.90;71.40;;;;;;5042151;28;20349;-62
2023/02/15 09:45:21;;;;;;;15.75;8.05;;;7.90;71.30;;;;;;5040775;28;20037;-62
2023/02/15 09:47:52;;;;;;;10.13;7.50;;;8.00;71.40;;;;;;5038675;28;20395;-62
2023/02/15 09:50:30;;;;;;;12.33;7.83;;;8.00;71.40;;;;;;5046404;28;20109;-62
2023/02/15 09:53:19;;;;;;;15.05;7.95;;;8.10;71.40;;;;;;5040428;28;20057;-60
2023/02/15 09:55:55;;;;;;;11.73;7.25;;;8.20;71.30;;;;;;5041389;28;20032;-60
2023/02/15 09:58:52;;;;;;;10.52;6.70;;;8.40;71.00;;;;;;5048899;28;20025;-62
2023/02/15 10:01:36;;;;;;;15.95;8.35;;;8.50;70.70;;;;;;5044463;28;20033;-62
2023/02/15 10:04:22;;;;;;;11.27;8.65;;;8.60;70.30;;;;;;5040189;28;20029;-59
2023/02/15 10:07:12;;;;;;;16.65;8.00;;;8.70;70.20;;;;;;5043098;28;20033;-59
2023/02/15 10:10:13;;;;;;;16.25;7.90;;;8.90;70.20;;;;;;5043237;28;20029;-60
2023/02/15 10:12:53;;;;;;;12.23;7.47;;;9.00;70.00;;;;;;5042255;28;20535;-60
2023/02/15 10:16:04;;;;;;;12.30;6.82;;;9.00;69.90;;;;;;5044719;28;20036;-59
2023/02/15 10:18:54;;;;;;;11.85;7.35;;;9.20;69.70;;;;;;5040422;28;20078;-60
2023/02/15 10:21:44;;;;;;;13.25;6.68;;;9.20;69.50;;;;;;5059611;28;20041;-60
2023/02/15 10:24:19;;;;;;;12.40;7.20;;;9.40;69.50;;;;;;5043841;28;20035;-60
2023/02/15 10:26:47;;;;;;;10.85;6.05;;;9.50;69.40;;;;;;5046953;28;20433;-62
2023/02/15 10:29:29;;;;;;;14.57;7.60;;;9.60;69.10;;;;;;5038059;28;20041;-63
2023/02/15 10:32:22;;;;;;;12.37;7.30;;;9.80;68.80;;;;;;5037224;28;20029;-62
2023/02/15 10:35:20;;;;;;;17.83;8.48;;;10.00;68.50;;;;;;5045680;28;20311;-62
2023/02/15 10:38:14;;;;;;;10.07;7.07;;;10.20;68.00;;;;;;5046559;28;20025;-62
2023/02/15 10:40:59;;;;;;;12.82;7.68;;;10.50;67.50;;;;;;5039617;28;20028;-61
2023/02/15 10:43:37;;;;;;;9.18;6.30;;;10.60;67.00;;;;;;5043128;28;20025;-63
2023/02/15 10:46:29;;;;;;;11.75;7.43;;;10.70;66.80;;;;;;5040652;28;20555;-62
2023/02/15 10:49:28;;;;;;;13.38;7.53;;;11.00;66.80;;;;;;5024548;28;20044;-62
2023/02/15 10:52:34;;;;;;;12.55;6.47;;;11.10;66.60;;;;;;5044699;28;20029;-63
2023/02/15 10:55:08;;;;;;;10.95;6.90;;;11.40;65.90;;;;;;5073700;28;20033;-63
2023/02/15 10:57:42;;;;;;;10.93;6.40;;;11.40;65.70;;;;;;5041730;28;20032;-63
2023/02/15 11:00:30;;;;;;;12.73;6.72;;;11.50;65.30;;;;;;5043657;28;20036;-58
2023/02/15 11:03:16;;;;;;;9.68;6.10;;;11.60;65.10;;;;;;5042925;28;20024;-58
2023/02/15 11:06:04;;;;;;;12.50;6.45;;;11.70;65.10;;;;;;5041506;28;20037;-59
2023/02/15 11:08:34;;;;;;;13.93;7.95;;;11.90;64.70;;;;;;5037578;28;20027;-62
2023/02/15 11:11:05;;;;;;;13.48;6.40;;;12.10;64.30;;;;;;5051654;28;20427;-63
2023/02/15 11:13:36;;;;;;;12.32;7.35;;;12.40;64.20;;;;;;5035897;28;20080;-62
2023/02/15 11:16:20;;;;;;;11.00;6.57;;;12.60;63.50;;;;;;5046260;28;20025;-62
2023/02/15 11:19:01;;;;;;;9.10;6.47;;;12.70;62.80;;;;;;5042433;28;20461;-62
2023/02/15 11:21:32;;;;;;;15.80;7.88;;;12.80;62.90;;;;;;5041944;28;20032;-62
2023/02/15 11:24:00;;;;;;;13.70;8.00;;;12.90;62.50;;;;;;5048521;28;20036;-61
2023/02/15 11:26:43;;;;;;;11.45;6.28;;;13.00;61.90;;;;;;5054581;28;20412;-62
2023/02/15 11:29:33;;;;;;;14.63;6.95;;;13.00;61.50;;;;;;5038280;28;20100;-61
2023/02/15 11:32:22;;;;;;;14.85;6.82;;;13.30;61.60;;;;;;5034528;28;20045;-62
2023/02/15 11:35:00;;;;;;;9.10;6.50;;;13.60;60.80;;;;;;5047732;28;20048;-62
2023/02/15 11:37:55;;;;;;;16.05;7.25;;;13.70;60.10;;;;;;5057453;28;20563;-61
2023/02/15 11:40:22;;;;;;;13.38;6.80;;;13.80;60.00;;;;;;5035584;28;20440;-62
2023/02/15 11:42:49;;;;;;;10.90;6.50;;;14.10;59.90;;;;;;5043497;28;20036;-62
2023/02/15 11:45:18;;;;;;;12.15;7.15;;;14.30;59.30;;;;;;5038916;28;20044;-63
2023/02/15 11:47:44;;;;;;;13.65;6.60;;;14.50;58.90;;;;;;5037515;28;20040;-63
2023/02/15 11:50:21;;;;;;;10.32;5.45;;;14.70;58.70;;;;;;5047811;28;20037;-63
2023/02/15 11:52:48;;;;;;;15.20;7.80;;;14.90;58.40;;;;;;5042322;28;20055;-61
2023/02/15 11:55:19;;;;;;;14.35;8.45;;;15.00;57.20;;;;;;5038763;28;20025;-62
2023/02/15 11:57:58;;;;;;;12.30;6.45;;;15.00;56.10;;;;;;5045833;28;20032;-62
2023/02/15 12:00:37;;;;;;;11.80;7.38;;;15.00;56.30;;;;;;5041664;28;20112;-63
2023/02/15 12:03:18;;;;;;;8.20;5.78;;;15.00;56.40;;;;;;5041747;28;20524;-63
2023/02/15 12:05:47;;;;;;;12.48;6.13;;;15.20;56.70;;;;;;5036812;28;20116;-63
2023/02/15 12:08:21;;;;;;;11.00;5.53;;;15.30;55.70;;;;;;5043550;28;20108;-65
2023/02/15 12:10:58;;;;;;;8.38;5.22;;;15.40;55.90;;;;;;5038019;28;20033;-63
2023/02/15 12:13:24;;;;;;;11.90;6.53;;;15.50;55.90;;;;;;5035339;28;20025;-63
2023/02/15 12:15:53;;;;;;;11.80;5.85;;;15.70;55.60;;;;;;5042716;28;20036;-63
2023/02/15 12:18:33;;;;;;;9.88;6.35;;;15.90;55.10;;;;;;5054550;28;20498;-63
2023/02/15 12:21:03;;;;;;;13.85;6.28;;;16.00;55.00;;;;;;5072576;28;20068;-63
2023/02/15 12:23:30;;;;;;;14.15;8.35;;;16.20;54.50;;;;;;5042439;28;20528;-67
2023/02/15 12:25:57;;;;;;;16.23;6.32;;;16.50;51.40;;;;;;5041781;28;20485;-64
2023/02/15 12:28:30;;;;;;;13.15;6.15;;;16.80;51.20;;;;;;5040939;28;20104;-62
2023/02/15 12:30:56;;;;;;;;;;;17.30;50.50;;;;;;5038800;28;20041;-61
2023/02/15 12:33:45;;;;;;;13.63;6.72;;;18.20;50.00;;;;;;5043204;28;19957;-63
2023/02/15 12:36:21;;;;;;;10.98;5.82;;;19.30;47.50;;;;;;5044809;28;20037;-63
2023/02/15 12:39:11;;;;;;;9.68;6.40;;;19.90;44.90;;;;;;5043734;28;20029;-63
2023/02/15 12:41:39;;;;;;;14.00;5.90;;;20.80;44.90;;;;;;5040701;28;20443;-64
2023/02/15 12:44:26;;;;;;;11.07;6.20;;;21.70;43.60;;;;;;5045291;28;20032;-58
2023/02/15 12:47:14;;;;;;;10.65;5.85;;;22.30;41.80;;;;;;5042276;28;20029;-59
2023/02/15 12:49:40;;;;;;;13.88;7.72;;;23.10;41.30;;;;;;5041564;28;20090;-59
2023/02/15 12:52:23;;;;;;;13.57;6.60;;;23.60;37.90;;;;;;5042046;28;20384;-59
2023/02/15 12:54:50;;;;;;;12.32;6.35;;;23.30;37.00;;;;;;5039973;28;20037;-58
2023/02/15 12:57:28;;;;;;;13.05;6.55;;;23.50;37.50;;;;;;5041357;28;20107;-59
2023/02/15 12:59:58;;;;;;;11.90;6.50;;;23.80;37.60;;;;;;5042045;28;20069;-59
2023/02/15 13:02:40;;;;;;;11.27;5.82;;;24.30;36.40;;;;;;5046878;28;20021;-59
2023/02/15 13:05:27;;;;;;;12.15;6.20;;;24.50;36.60;;;;;;5047231;28;20060;-59
2023/02/15 13:08:11;;;;;;;13.48;6.38;;;24.40;35.50;;;;;;5033054;28;20033;-59
2023/02/15 13:10:39;;;;;;;15.95;6.38;;;24.20;35.80;;;;;;5055246;28;20087;-63
2023/02/15 13:13:21;;;;;;;10.48;5.63;;;24.20;36.10;;;;;;5032644;28;20481;-64
2023/02/15 13:15:50;;;;;;;10.43;5.35;;;24.30;36.30;;;;;;5032864;28;21131;-64
2023/02/15 13:18:28;;;;;;;11.20;6.57;;;24.70;36.10;;;;;;5037843;28;20100;-64
2023/02/15 13:20:55;;;;;;;12.95;6.85;;;25.00;34.70;;;;;;5042976;28;20025;-59
2023/02/15 13:23:27;;;;;;;14.43;7.60;;;24.40;35.40;;;;;;5041528;28;20025;-59
2023/02/15 13:25:57;;;;;;;12.52;6.40;;;23.20;36.00;;;;;;5047927;28;20029;-60
2023/02/15 13:28:34;;;;;;;15.57;7.32;;;22.00;37.60;;;;;;5048228;28;20033;-59
2023/02/15 13:31:00;;;;;;;11.70;6.03;;;21.10;39.20;;;;;;5041642;28;20460;-63
2023/02/15 13:33:35;;;;;;;15.95;6.38;;;20.70;40.30;;;;;;5033948;28;20057;-57
2023/02/15 13:36:33;;;;;;;11.35;6.07;;;20.50;40.80;;;;;;5042596;28;20116;-62
2023/02/15 13:39:07;;;;;;;15.55;6.20;;;20.20;41.10;;;;;;5046802;28;20051;-57
2023/02/15 13:41:43;;;;;;;9.68;5.53;;;19.70;42.00;;;;;;5045123;28;20033;-61
2023/02/15 13:45:00;;;;;;;14.65;6.53;;;19.20;43.00;;;;;;5043208;28;20021;-62